createdAt,value
2019-02-16T00:00:18.384Z,-0.55
2019-02-16T00:02:47.791Z,-0.55
2019-02-16T00:05:15.355Z,-0.55
2019-02-16T00:07:43.058Z,-0.55
2019-02-16T00:10:11.087Z,-0.63
2019-02-16T00:12:38.952Z,-0.57
2019-02-16T00:15:06.683Z,-0.60
2019-02-16T00:17:34.317Z,-0.58
2019-02-16T00:20:01.919Z,-0.59
2019-02-16T00:22:29.877Z,-0.66
2019-02-16T00:24:57.806Z,-0.64
2019-02-16T00:27:25.810Z,-0.66
2019-02-16T00:29:54.062Z,-0.70
2019-02-16T00:32:21.687Z,-0.84
2019-02-16T00:34:49.426Z,-0.87
2019-02-16T00:37:17.094Z,-0.83
2019-02-16T00:39:44.786Z,-0.77
2019-02-16T00:42:12.390Z,-0.77
2019-02-16T00:44:39.970Z,-0.94
2019-02-16T00:47:07.615Z,-1.00
2019-02-16T00:49:35.173Z,-1.00
2019-02-16T00:52:02.849Z,-1.07
2019-02-16T00:54:31.375Z,-0.95
2019-02-16T00:56:58.969Z,-0.90
2019-02-16T00:59:27.986Z,-0.95
2019-02-16T01:01:56.871Z,-0.98
2019-02-16T01:04:24.485Z,-0.94
2019-02-16T01:06:52.078Z,-1.08
2019-02-16T01:09:19.700Z,-1.04
2019-02-16T01:11:47.377Z,-1.01
2019-02-16T01:14:15.028Z,-1.02
2019-02-16T01:16:42.632Z,-1.00
2019-02-16T01:19:10.189Z,-0.94
2019-02-16T01:21:37.809Z,-1.03
2019-02-16T01:24:05.360Z,-1.00
2019-02-16T01:26:32.964Z,-0.99
2019-02-16T01:29:00.525Z,-0.97
2019-02-16T01:31:28.146Z,-0.95
2019-02-16T01:33:55.684Z,-0.97
2019-02-16T01:36:23.424Z,-1.00
2019-02-16T01:38:50.986Z,-1.01
2019-02-16T01:41:18.568Z,-1.01
2019-02-16T01:43:46.104Z,-1.02
2019-02-16T01:46:13.805Z,-1.03
2019-02-16T01:48:41.338Z,-1.08
2019-02-16T01:51:08.964Z,-1.13
2019-02-16T01:53:36.479Z,-1.19
2019-02-16T01:56:05.226Z,-1.21
2019-02-16T01:58:33.940Z,-1.24
2019-02-16T02:01:02.197Z,-1.20
2019-02-16T02:03:29.755Z,-1.23
2019-02-16T02:05:57.321Z,-1.30
2019-02-16T02:08:24.913Z,-1.27
2019-02-16T02:10:52.641Z,-1.34
2019-02-16T02:13:20.736Z,-1.36
2019-02-16T02:15:48.819Z,-1.34
2019-02-16T02:18:16.702Z,-1.41
2019-02-16T02:20:44.928Z,-1.42
2019-02-16T02:23:12.791Z,-1.42
2019-02-16T02:25:40.733Z,-1.58
2019-02-16T02:28:08.418Z,-1.65
2019-02-16T02:30:35.973Z,-1.65
2019-02-16T02:33:03.516Z,-1.64
2019-02-16T02:35:31.021Z,-1.61
2019-02-16T02:37:58.679Z,-1.59
2019-02-16T02:40:26.313Z,-1.66
2019-02-16T02:42:53.917Z,-1.77
2019-02-16T02:45:21.554Z,-1.78
2019-02-16T02:47:49.614Z,-1.77
2019-02-16T02:50:17.443Z,-1.78
2019-02-16T02:52:45.075Z,-1.80
2019-02-16T02:55:12.626Z,-1.82
2019-02-16T02:57:40.694Z,-1.80
2019-02-16T03:00:08.688Z,-1.85
2019-02-16T03:02:36.552Z,-1.85
2019-02-16T03:05:05.199Z,-1.84
2019-02-16T03:07:33.226Z,-1.96
2019-02-16T03:10:01.234Z,-2.01
2019-02-16T03:12:29.352Z,-1.96
2019-02-16T03:14:57.115Z,-1.96
2019-02-16T03:17:25.295Z,-1.93
2019-02-16T03:19:53.498Z,-1.97
2019-02-16T03:22:21.432Z,-2.05
2019-02-16T03:24:49.541Z,-2.01
2019-02-16T03:27:34.085Z,-2.01
2019-02-16T03:30:49.599Z,-2.06
2019-02-16T03:33:56.091Z,-2.08
2019-02-16T03:37:05.760Z,-2.06
2019-02-16T03:39:39.481Z,-2.06
2019-02-16T03:42:07.605Z,-2.08
2019-02-16T03:44:35.546Z,-2.08
2019-02-16T03:47:03.746Z,-2.08
2019-02-16T03:49:32.021Z,-2.11
2019-02-16T03:51:59.980Z,-2.05
2019-02-16T03:54:29.390Z,-2.12
2019-02-16T03:56:57.442Z,-2.15
2019-02-16T03:59:25.562Z,-2.16
2019-02-16T04:01:53.849Z,-2.20
2019-02-16T04:04:21.868Z,-2.17
2019-02-16T04:06:49.785Z,-2.16
2019-02-16T04:09:17.840Z,-2.16
2019-02-16T04:11:45.871Z,-2.22
2019-02-16T04:14:13.910Z,-2.34
2019-02-16T04:16:42.040Z,-2.30
2019-02-16T04:19:10.012Z,-2.26
2019-02-16T04:21:38.086Z,-2.24
2019-02-16T04:24:05.908Z,-2.27
2019-02-16T04:26:34.029Z,-2.31
2019-02-16T04:29:01.981Z,-2.37
2019-02-16T04:31:29.954Z,-2.37
2019-02-16T04:33:57.968Z,-2.36
2019-02-16T04:36:25.964Z,-2.41
2019-02-16T04:38:53.853Z,-2.36
2019-02-16T04:41:21.574Z,-2.31
2019-02-16T04:43:49.163Z,-2.31
2019-02-16T04:46:16.751Z,-2.34
2019-02-16T04:48:44.433Z,-2.36
2019-02-16T04:51:12.076Z,-2.36
2019-02-16T04:53:41.286Z,-2.37
2019-02-16T04:56:09.498Z,-2.36
2019-02-16T04:58:37.397Z,-2.40
2019-02-16T05:01:05.526Z,-2.34
2019-02-16T05:03:33.516Z,-2.38
2019-02-16T05:06:03.060Z,-2.45
2019-02-16T05:08:31.058Z,-2.38
2019-02-16T05:10:58.986Z,-2.43
2019-02-16T05:13:27.027Z,-2.54
2019-02-16T05:15:55.058Z,-2.49
2019-02-16T05:18:22.931Z,-2.55
2019-02-16T05:20:50.799Z,-2.59
2019-02-16T05:23:18.913Z,-2.56
2019-02-16T05:25:47.018Z,-2.54
2019-02-16T05:28:15.164Z,-2.53
2019-02-16T05:30:43.185Z,-2.46
2019-02-16T05:33:10.751Z,-2.50
2019-02-16T05:35:38.335Z,-2.50
2019-02-16T05:38:05.878Z,-2.50
2019-02-16T05:40:33.453Z,-2.53
2019-02-16T05:43:01.073Z,-2.54
2019-02-16T05:45:28.636Z,-2.69
2019-02-16T05:47:56.223Z,-2.77
2019-02-16T05:50:24.003Z,-2.76
2019-02-16T05:52:54.665Z,-2.72
2019-02-16T05:55:22.577Z,-2.67
2019-02-16T05:57:50.221Z,-2.71
2019-02-16T06:00:20.041Z,-2.78
2019-02-16T06:02:47.671Z,-2.72
2019-02-16T06:05:15.403Z,-2.62
2019-02-16T06:07:42.937Z,-2.59
2019-02-16T06:10:10.563Z,-2.62
2019-02-16T06:12:38.135Z,-2.58
2019-02-16T06:15:06.546Z,-2.59
2019-02-16T06:17:34.080Z,-2.56
2019-02-16T06:20:01.705Z,-2.53
2019-02-16T06:22:29.227Z,-2.43
2019-02-16T06:24:56.891Z,-2.31
2019-02-16T06:27:24.438Z,-2.20
2019-02-16T06:29:52.106Z,-2.07
2019-02-16T06:32:19.949Z,-1.82
2019-02-16T06:34:49.612Z,-1.61
2019-02-16T06:37:21.766Z,-1.45
2019-02-16T06:39:50.173Z,-1.21
2019-02-16T06:42:18.088Z,-0.92
2019-02-16T06:44:46.034Z,-0.58
2019-02-16T06:47:13.973Z,-0.24
2019-02-16T06:49:42.057Z,-0.06
2019-02-16T06:52:10.022Z,0.29
2019-02-16T06:54:38.012Z,0.68
2019-02-16T06:57:40.594Z,0.97
2019-02-16T07:00:10.319Z,1.22
2019-02-16T07:02:38.354Z,1.20
2019-02-16T07:05:06.358Z,1.14
2019-02-16T07:07:34.416Z,1.03
2019-02-16T07:10:02.524Z,0.75
2019-02-16T07:12:30.214Z,0.62
2019-02-16T07:14:57.751Z,0.66
2019-02-16T07:17:51.282Z,0.85
2019-02-16T07:20:21.113Z,1.00
2019-02-16T07:22:48.882Z,1.09
2019-02-16T07:25:16.923Z,1.23
2019-02-16T07:27:46.224Z,1.39
2019-02-16T07:30:14.014Z,1.34
2019-02-16T07:32:41.663Z,1.57
2019-02-16T07:35:09.252Z,1.76
2019-02-16T07:37:36.904Z,1.93
2019-02-16T07:40:04.704Z,2.20
2019-02-16T07:42:49.582Z,2.64
2019-02-16T07:45:49.501Z,3.10
2019-02-16T07:48:22.402Z,3.69
2019-02-16T07:51:04.292Z,4.21
2019-02-16T07:54:03.562Z,4.65
2019-02-16T07:56:49.196Z,5.28
2019-02-16T07:59:31.100Z,5.59
2019-02-16T08:02:15.921Z,5.92
2019-02-16T08:05:12.155Z,6.71
2019-02-16T08:07:52.795Z,7.04
2019-02-16T08:10:55.550Z,7.19
2019-02-16T08:13:30.374Z,7.56
2019-02-16T08:16:13.466Z,7.92
2019-02-16T08:19:15.658Z,8.72
2019-02-16T08:21:59.431Z,9.12
2019-02-16T08:25:04.596Z,9.37
2019-02-16T08:27:51.793Z,9.72
2019-02-16T08:30:25.811Z,10.07
2019-02-16T08:33:11.260Z,9.76
2019-02-16T08:35:58.341Z,10.12
2019-02-16T08:38:41.987Z,10.46
2019-02-16T08:41:24.021Z,10.57
2019-02-16T08:44:01.635Z,10.85
2019-02-16T08:46:47.583Z,10.69
2019-02-16T08:49:40.581Z,10.63
2019-02-16T08:52:20.353Z,10.84
2019-02-16T08:55:01.228Z,10.76
2019-02-16T08:57:49.740Z,10.88
2019-02-16T09:00:36.959Z,11.20
2019-02-16T09:03:20.668Z,11.12
2019-02-16T09:06:06.393Z,10.77
2019-02-16T09:08:53.926Z,10.75
2019-02-16T09:11:46.415Z,10.87
2019-02-16T09:14:32.548Z,10.67
2019-02-16T09:17:28.714Z,10.76
2019-02-16T09:20:22.750Z,11.44
2019-02-16T09:23:18.943Z,11.63
2019-02-16T09:26:07.420Z,11.42
2019-02-16T09:29:05.118Z,12.43
2019-02-16T09:31:52.740Z,12.08
2019-02-16T09:34:46.438Z,12.70
2019-02-16T09:37:46.374Z,12.43
2019-02-16T09:40:33.878Z,12.76
2019-02-16T09:43:15.051Z,13.45
2019-02-16T09:45:52.416Z,13.63
2019-02-16T09:48:38.813Z,13.75
2019-02-16T09:51:22.440Z,13.30
2019-02-16T09:54:12.662Z,13.64
2019-02-16T09:56:47.865Z,13.62
2019-02-16T09:59:50.055Z,13.70
2019-02-16T10:02:27.346Z,14.21
2019-02-16T10:05:14.527Z,14.43
2019-02-16T10:08:07.539Z,14.61
2019-02-16T10:10:53.468Z,14.49
2019-02-16T10:13:32.601Z,14.94
2019-02-16T10:16:18.731Z,15.02
2019-02-16T10:19:12.302Z,15.43
2019-02-16T10:21:57.467Z,15.34
2019-02-16T10:24:43.666Z,15.46
2019-02-16T10:27:18.472Z,15.96
2019-02-16T10:30:21.357Z,15.63
2019-02-16T10:33:08.927Z,15.91
2019-02-16T10:35:42.731Z,16.33
2019-02-16T10:38:31.446Z,15.93
2019-02-16T10:41:25.329Z,16.45
2019-02-16T10:44:10.745Z,16.67
2019-02-16T10:47:01.003Z,17.05
2019-02-16T10:49:46.155Z,17.14
2019-02-16T10:52:34.530Z,17.18
2019-02-16T10:55:30.766Z,17.30
2019-02-16T10:58:09.607Z,17.32
2019-02-16T11:00:56.153Z,17.25
2019-02-16T11:03:39.892Z,17.32
2019-02-16T11:06:27.405Z,17.27
2019-02-16T11:09:05.570Z,17.38
2019-02-16T11:11:59.291Z,17.10
2019-02-16T11:14:46.681Z,16.88
2019-02-16T11:17:48.946Z,16.68
2019-02-16T11:20:28.404Z,17.45
2019-02-16T11:23:07.591Z,17.66
2019-02-16T11:26:13.661Z,17.74
2019-02-16T11:28:57.834Z,17.72
2019-02-16T11:31:46.396Z,17.80
2019-02-16T11:34:30.371Z,18.44
2019-02-16T11:37:12.627Z,18.47
2019-02-16T11:39:49.427Z,18.55
2019-02-16T11:42:36.832Z,18.83
2019-02-16T11:45:23.083Z,18.62
2019-02-16T11:48:10.416Z,18.63
2019-02-16T11:50:49.671Z,18.59
2019-02-16T11:53:25.337Z,18.74
2019-02-16T11:56:22.001Z,18.95
2019-02-16T11:59:05.421Z,18.24
2019-02-16T12:01:40.843Z,18.72
2019-02-16T12:04:31.110Z,18.84
2019-02-16T12:07:05.651Z,18.82
2019-02-16T12:09:42.353Z,19.17
2019-02-16T12:12:28.417Z,18.61
2019-02-16T12:15:05.681Z,19.13
2019-02-16T12:18:11.522Z,18.69
2019-02-16T12:21:08.254Z,18.79
2019-02-16T12:23:55.324Z,19.27
2019-02-16T12:26:38.078Z,19.65
2019-02-16T12:29:37.523Z,19.91
2019-02-16T12:32:16.886Z,19.71
2019-02-16T12:35:10.232Z,19.99
2019-02-16T12:37:46.642Z,19.94
2019-02-16T12:40:40.193Z,19.96
2019-02-16T12:43:33.599Z,20.22
2019-02-16T12:46:16.918Z,19.76
2019-02-16T12:49:04.337Z,20.05
2019-02-16T12:51:39.489Z,19.73
2019-02-16T12:54:32.803Z,19.75
2019-02-16T12:57:06.042Z,19.75
2019-02-16T12:59:51.519Z,19.64
2019-02-16T13:02:34.855Z,19.69
2019-02-16T13:05:31.498Z,19.54
2019-02-16T13:08:17.621Z,19.58
2019-02-16T13:11:07.643Z,19.72
2019-02-16T13:13:44.448Z,19.98
2019-02-16T13:16:41.634Z,20.23
2019-02-16T13:19:38.016Z,19.55
2019-02-16T13:22:16.906Z,19.65
2019-02-16T13:24:51.694Z,19.91
2019-02-16T13:27:51.841Z,20.26
2019-02-16T13:30:35.057Z,20.13
2019-02-16T13:33:18.619Z,20.35
2019-02-16T13:36:02.749Z,20.11
2019-02-16T13:38:49.899Z,20.08
2019-02-16T13:41:37.456Z,20.21
2019-02-16T13:44:14.778Z,20.56
2019-02-16T13:46:52.441Z,20.53
2019-02-16T13:49:35.764Z,20.07
2019-02-16T13:52:21.782Z,19.92
2019-02-16T13:55:14.902Z,20.16
2019-02-16T13:58:11.580Z,20.12
2019-02-16T14:00:55.271Z,20.22
2019-02-16T14:03:54.697Z,20.43
2019-02-16T14:06:47.996Z,20.36
2019-02-16T14:09:38.292Z,20.28
2019-02-16T14:12:28.424Z,20.59
2019-02-16T14:15:21.716Z,20.49
2019-02-16T14:17:51.579Z,20.17
2019-02-16T14:20:19.366Z,20.11
2019-02-16T14:22:47.005Z,19.79
2019-02-16T14:25:33.027Z,19.97
2019-02-16T14:28:00.574Z,19.68
2019-02-16T14:30:28.254Z,19.76
2019-02-16T14:32:55.841Z,19.72
2019-02-16T14:35:23.533Z,19.26
2019-02-16T14:37:56.815Z,19.17
2019-02-16T14:40:27.534Z,19.06
2019-02-16T14:42:55.047Z,19.13
2019-02-16T14:45:22.683Z,18.83
2019-02-16T14:47:50.306Z,18.80
2019-02-16T14:50:18.110Z,18.39
2019-02-16T14:52:45.778Z,18.17
2019-02-16T14:55:13.624Z,18.16
2019-02-16T14:57:41.316Z,18.11
2019-02-16T15:00:09.754Z,17.91
2019-02-16T15:02:37.309Z,17.63
2019-02-16T15:05:05.478Z,17.27
2019-02-16T15:07:34.039Z,17.23
2019-02-16T15:10:01.651Z,17.10
2019-02-16T15:12:29.175Z,16.89
2019-02-16T15:14:57.141Z,16.78
2019-02-16T15:17:25.061Z,16.80
2019-02-16T15:19:52.976Z,16.87
2019-02-16T15:22:20.880Z,16.75
2019-02-16T15:24:48.780Z,16.50
2019-02-16T15:27:16.808Z,16.34
2019-02-16T15:29:44.914Z,16.13
2019-02-16T15:32:12.687Z,15.96
2019-02-16T15:34:40.543Z,15.68
2019-02-16T15:37:08.452Z,15.41
2019-02-16T15:39:36.509Z,15.07
2019-02-16T15:42:04.548Z,14.87
2019-02-16T15:44:32.495Z,14.88
2019-02-16T15:47:00.636Z,14.95
2019-02-16T15:49:28.597Z,14.58
2019-02-16T15:51:56.808Z,14.18
2019-02-16T15:54:24.757Z,13.76
2019-02-16T15:56:52.486Z,13.62
2019-02-16T15:59:20.126Z,13.14
2019-02-16T16:01:48.846Z,12.76
2019-02-16T16:04:17.099Z,12.71
2019-02-16T16:06:45.176Z,12.44
2019-02-16T16:09:44.380Z,12.29
2019-02-16T16:12:30.582Z,12.05
2019-02-16T16:15:09.928Z,11.82
2019-02-16T16:18:07.879Z,11.74
2019-02-16T16:20:58.228Z,11.39
2019-02-16T16:23:57.711Z,11.25
2019-02-16T16:26:47.954Z,11.04
2019-02-16T16:29:37.260Z,10.76
2019-02-16T16:32:27.583Z,10.64
2019-02-16T16:35:13.310Z,10.46
2019-02-16T16:38:06.578Z,10.24
2019-02-16T16:40:49.301Z,10.02
2019-02-16T16:43:27.300Z,9.82
2019-02-16T16:46:04.936Z,9.56
2019-02-16T16:48:44.941Z,9.37
2019-02-16T16:51:37.191Z,9.15
2019-02-16T16:54:27.756Z,8.99
2019-02-16T16:57:21.592Z,8.83
2019-02-16T17:00:07.386Z,8.71
2019-02-16T17:02:57.868Z,8.55
2019-02-16T17:05:48.120Z,8.46
2019-02-16T17:08:35.593Z,8.29
2019-02-16T17:11:21.783Z,8.19
2019-02-16T17:14:05.871Z,7.93
2019-02-16T17:17:08.609Z,7.83
2019-02-16T17:20:08.639Z,7.74
2019-02-16T17:23:05.159Z,7.55
2019-02-16T17:25:51.892Z,7.34
2019-02-16T17:28:42.189Z,7.19
2019-02-16T17:31:18.841Z,7.02
2019-02-16T17:34:02.052Z,6.85
2019-02-16T17:36:48.431Z,6.81
2019-02-16T17:39:29.747Z,6.79
2019-02-16T17:42:23.565Z,6.71
2019-02-16T17:45:01.035Z,6.61
2019-02-16T17:47:42.388Z,6.55
2019-02-16T17:50:44.975Z,6.46
2019-02-16T17:53:22.990Z,6.37
2019-02-16T17:55:59.044Z,6.26
2019-02-16T17:58:51.067Z,6.24
2019-02-16T18:01:54.464Z,6.24
2019-02-16T18:04:50.782Z,6.16
2019-02-16T18:07:41.372Z,6.09
2019-02-16T18:10:27.631Z,6.04
2019-02-16T18:13:18.040Z,5.89
2019-02-16T18:15:57.509Z,5.79
2019-02-16T18:18:43.957Z,5.72
2019-02-16T18:21:30.228Z,5.69
2019-02-16T18:24:16.686Z,5.63
2019-02-16T18:27:06.870Z,5.52
2019-02-16T18:30:00.458Z,5.46
2019-02-16T18:32:50.832Z,5.38
2019-02-16T18:35:42.550Z,5.28
2019-02-16T18:38:26.364Z,5.21
2019-02-16T18:41:31.772Z,5.22
2019-02-16T18:44:31.217Z,5.16
2019-02-16T18:47:17.336Z,5.13
2019-02-16T18:50:23.387Z,5.07
2019-02-16T18:53:29.218Z,5.05
2019-02-16T18:56:08.993Z,4.93
2019-02-16T18:58:54.788Z,4.88
2019-02-16T19:01:40.580Z,4.81
2019-02-16T19:04:40.320Z,4.77
2019-02-16T19:07:14.833Z,4.74
2019-02-16T19:09:58.448Z,4.71
2019-02-16T19:12:46.095Z,4.66
2019-02-16T19:15:33.772Z,4.58
2019-02-16T19:18:30.212Z,4.49
2019-02-16T19:21:09.740Z,4.44
2019-02-16T19:23:58.758Z,4.39
2019-02-16T19:26:36.653Z,4.33
2019-02-16T19:29:36.087Z,4.28
2019-02-16T19:32:28.795Z,4.25
2019-02-16T19:35:21.536Z,4.20
2019-02-16T19:38:09.896Z,4.16
2019-02-16T19:41:00.458Z,4.12
2019-02-16T19:43:52.867Z,4.09
2019-02-16T19:46:40.388Z,3.98
2019-02-16T19:49:37.116Z,3.90
2019-02-16T19:52:27.446Z,3.88
2019-02-16T19:55:13.495Z,3.82
2019-02-16T19:57:59.433Z,3.77
2019-02-16T20:00:45.796Z,3.74
2019-02-16T20:03:39.462Z,3.66
2019-02-16T20:06:38.304Z,3.60
2019-02-16T20:09:19.845Z,3.51
2019-02-16T20:12:19.362Z,3.46
2019-02-16T20:15:16.024Z,3.38
2019-02-16T20:17:56.269Z,3.35
2019-02-16T20:20:32.811Z,3.35
2019-02-16T20:23:18.813Z,3.32
2019-02-16T20:26:02.867Z,3.28
2019-02-16T20:29:08.326Z,3.22
2019-02-16T20:31:46.536Z,3.18
2019-02-16T20:34:26.697Z,3.10
2019-02-16T20:37:03.144Z,3.09
2019-02-16T20:39:53.457Z,3.01
2019-02-16T20:42:32.356Z,3.00
2019-02-16T20:45:25.835Z,2.94
2019-02-16T20:48:05.486Z,2.90
2019-02-16T20:51:04.947Z,2.78
2019-02-16T20:53:49.234Z,2.73
2019-02-16T20:56:35.679Z,2.72
2019-02-16T20:59:21.358Z,2.68
2019-02-16T21:02:18.964Z,2.61
2019-02-16T21:05:09.170Z,2.49
2019-02-16T21:07:50.785Z,2.46
2019-02-16T21:10:53.491Z,2.44
2019-02-16T21:13:37.742Z,2.41
2019-02-16T21:16:29.628Z,2.36
2019-02-16T21:19:14.517Z,2.22
2019-02-16T21:22:00.678Z,2.21
2019-02-16T21:24:48.393Z,2.18
2019-02-16T21:27:38.943Z,2.19
2019-02-16T21:30:33.082Z,2.14
2019-02-16T21:33:10.112Z,2.11
2019-02-16T21:35:59.947Z,2.08
2019-02-16T21:39:02.781Z,2.05
2019-02-16T21:41:43.001Z,1.97
2019-02-16T21:44:44.216Z,1.89
2019-02-16T21:47:20.932Z,1.83
2019-02-16T21:50:06.760Z,1.76
2019-02-16T21:52:43.280Z,1.76
2019-02-16T21:55:29.234Z,1.71
2019-02-16T21:58:19.464Z,1.71
2019-02-16T22:01:22.425Z,1.71
2019-02-16T22:04:09.666Z,1.65
2019-02-16T22:06:45.939Z,1.57
2019-02-16T22:09:32.138Z,1.49
2019-02-16T22:12:11.634Z,1.46
2019-02-16T22:14:39.604Z,1.40
2019-02-16T22:17:07.543Z,1.43
2019-02-16T22:19:37.184Z,1.37
2019-02-16T22:22:05.124Z,1.31
2019-02-16T22:24:32.930Z,1.26
2019-02-16T22:27:02.322Z,1.26
2019-02-16T22:29:30.366Z,1.22
2019-02-16T22:31:58.358Z,1.20
2019-02-16T22:34:26.285Z,1.08
2019-02-16T22:36:54.064Z,1.15
2019-02-16T22:39:22.017Z,1.10
2019-02-16T22:41:50.141Z,1.05
2019-02-16T22:44:18.244Z,1.03
2019-02-16T22:46:46.201Z,0.99
2019-02-16T22:49:14.100Z,0.94
2019-02-16T22:51:41.866Z,0.91
2019-02-16T22:54:09.775Z,0.85
2019-02-16T22:56:37.736Z,0.81
2019-02-16T22:59:05.784Z,0.82
2019-02-16T23:01:33.690Z,0.81
2019-02-16T23:04:03.171Z,0.78
2019-02-16T23:06:31.024Z,0.66
2019-02-16T23:08:59.046Z,0.72
2019-02-16T23:11:27.324Z,0.69
2019-02-16T23:13:55.287Z,0.66
2019-02-16T23:16:23.230Z,0.60
2019-02-16T23:18:51.081Z,0.58
2019-02-16T23:21:18.896Z,0.50
2019-02-16T23:23:49.581Z,0.52
2019-02-16T23:26:19.594Z,0.49
2019-02-16T23:28:47.746Z,0.44
2019-02-16T23:31:15.743Z,0.42
2019-02-16T23:33:44.073Z,0.41
2019-02-16T23:36:12.253Z,0.37
2019-02-16T23:38:39.914Z,0.38
2019-02-16T23:41:07.879Z,0.37
2019-02-16T23:43:36.235Z,0.32
2019-02-16T23:46:04.366Z,0.32
2019-02-16T23:48:32.218Z,0.27
2019-02-16T23:51:00.235Z,0.23
2019-02-16T23:53:28.522Z,0.23
2019-02-16T23:55:56.579Z,0.15
2019-02-16T23:58:24.602Z,0.05
